Time;durP1;ratioP1;P1;durP2;ratioP2;P2;SDS_P1;SDS_P2;PMS_P1;PMS_P2;Temp;Humidity;BMP_temperature;BMP_pressure;BME280_temperature;BME280_humidity;BME280_pressure;Samples;Min_cycle;Max_cycle;Signal;HPM_P1;HPM_P2
2022/09/25 00:01:17;;;;;;;0.70;0.40;;;23.70;94.70;;;;;;5069036;28;20012;-83
2022/09/25 00:03:45;;;;;;;0.45;0.40;;;23.80;93.70;;;;;;5068595;28;20384;-83
2022/09/25 00:06:18;;;;;;;0.63;0.30;;;24.20;94.40;;;;;;5067986;28;20028;-89
2022/09/25 00:08:46;;;;;;;0.68;0.47;;;24.80;92.30;;;;;;5061736;28;20032;-86
2022/09/25 00:11:19;;;;;;;0.85;0.40;;;25.00;90.80;;;;;;5060842;28;20029;-85
2022/09/25 00:13:47;;;;;;;0.68;0.40;;;25.00;90.40;;;;;;5055445;28;20368;-85
2022/09/25 00:16:18;;;;;;;2.78;0.65;;;25.00;90.50;;;;;;5056247;28;20192;-90
2022/09/25 00:21:32;;;;;;;1.50;0.60;;;24.40;88.70;;;;;;5066612;28;20502;-86
2022/09/25 00:24:02;;;;;;;0.55;0.50;;;24.40;90.30;;;;;;5071372;28;20048;-84
2022/09/25 00:26:31;;;;;;;1.70;0.40;;;24.40;90.10;;;;;;5069841;28;20379;-83
2022/09/25 00:29:02;;;;;;;1.35;0.40;;;24.30;89.90;;;;;;5070564;28;20024;-88
2022/09/25 00:31:31;;;;;;;1.63;0.40;;;24.40;87.50;;;;;;5067583;28;20174;-88
2022/09/25 00:34:01;;;;;;;0.73;0.43;;;24.50;89.60;;;;;;5061200;28;20127;-91
2022/09/25 00:36:30;;;;;;;0.70;0.65;;;24.80;90.70;;;;;;5055141;28;20025;-90
2022/09/25 00:38:57;;;;;;;0.80;0.73;;;24.80;86.60;;;;;;5054520;28;20056;-80
2022/09/25 00:41:30;;;;;;;1.92;0.52;;;25.20;89.30;;;;;;5060935;28;20023;-84
2022/09/25 00:43:59;;;;;;;0.75;0.50;;;25.20;87.30;;;;;;5059093;28;20162;-87
2022/09/25 00:46:42;;;;;;;0.80;0.52;;;25.30;86.30;;;;;;5066990;28;20021;-90
2022/09/25 00:49:10;;;;;;;1.15;0.45;;;25.20;87.80;;;;;;5062981;28;20484;-84
2022/09/25 00:51:52;;;;;;;1.27;0.40;;;25.20;86.80;;;;;;5056475;28;20055;-78
2022/09/25 00:54:33;;;;;;;0.45;0.40;;;25.50;84.60;;;;;;5056526;28;20040;-86
2022/09/25 00:57:10;;;;;;;0.95;0.50;;;25.60;87.80;;;;;;5055128;28;20028;-89
2022/09/25 00:59:41;;;;;;;1.00;0.50;;;25.30;87.80;;;;;;5060714;28;20033;-85
2022/09/25 01:02:13;;;;;;;0.90;0.50;;;25.00;88.70;;;;;;5052324;28;20077;-85
2022/09/25 01:04:45;;;;;;;0.70;0.40;;;24.60;88.50;;;;;;5056073;28;20041;-90
2022/09/25 01:07:13;;;;;;;1.20;0.50;;;24.70;88.70;;;;;;5040115;28;20036;-86
2022/09/25 01:09:41;;;;;;;0.95;0.60;;;25.00;89.00;;;;;;5059062;28;20451;-81
2022/09/25 01:12:08;;;;;;;0.73;0.40;;;25.20;90.50;;;;;;5070233;28;20103;-87
2022/09/25 01:14:36;;;;;;;0.65;0.43;;;25.50;91.50;;;;;;5063094;28;20381;-85
2022/09/25 01:17:20;;;;;;;0.50;0.40;;;26.00;90.40;;;;;;5065342;28;20476;-89
2022/09/25 01:20:09;;;;;;;1.27;0.50;;;25.90;88.20;;;;;;5058007;28;20033;-82
2022/09/25 01:23:25;;;;;;;0.93;0.45;;;25.80;87.30;;;;;;5064579;28;20020;-88
2022/09/25 01:26:16;;;;;;;3.75;0.90;;;25.50;89.10;;;;;;5068813;28;20025;-83
2022/09/25 01:29:16;;;;;;;1.55;0.50;;;25.50;86.10;;;;;;5064758;28;20055;-89
2022/09/25 01:31:53;;;;;;;0.50;0.32;;;25.50;83.80;;;;;;5077539;28;20368;-89
2022/09/25 01:34:28;;;;;;;0.80;0.40;;;25.40;85.30;;;;;;5073094;28;20035;-87
2022/09/25 01:37:40;;;;;;;1.80;0.50;;;25.30;85.10;;;;;;5057296;28;20031;-88
2022/09/25 01:40:14;;;;;;;0.63;0.52;;;25.50;88.80;;;;;;5032330;28;20039;-91
2022/09/25 01:42:49;;;;;;;2.38;0.40;;;25.70;85.20;;;;;;5062524;28;20451;-88
2022/09/25 01:45:43;;;;;;;0.77;0.40;;;25.70;83.60;;;;;;5068392;28;20470;-88
2022/09/25 01:48:13;;;;;;;1.05;0.40;;;25.80;84.80;;;;;;5062907;28;20038;-88
2022/09/25 01:50:49;;;;;;;0.40;0.40;;;25.90;85.90;;;;;;5071737;28;20032;-89
2022/09/25 01:53:22;;;;;;;0.80;0.47;;;26.10;83.50;;;;;;5068447;28;20036;-92
2022/09/25 01:56:00;;;;;;;0.28;0.28;;;26.20;83.50;;;;;;5059944;28;20032;-89
2022/09/25 01:58:40;;;;;;;1.55;0.40;;;26.20;82.30;;;;;;5046473;28;20132;-85
2022/09/25 02:01:15;;;;;;;0.70;0.45;;;26.00;83.20;;;;;;5066520;28;20028;-86
2022/09/25 02:03:51;;;;;;;1.17;0.50;;;26.20;83.20;;;;;;5077898;28;20434;-87
2022/09/25 02:06:20;;;;;;;2.15;0.63;;;26.40;81.80;;;;;;5067254;28;20414;-89
2022/09/25 02:09:00;;;;;;;0.90;0.52;;;26.60;81.00;;;;;;5077296;28;20373;-87
2022/09/25 02:11:32;;;;;;;0.65;0.45;;;26.30;81.00;;;;;;5068219;28;20031;-84
2022/09/25 02:14:08;;;;;;;0.75;0.40;;;26.20;79.60;;;;;;5069856;28;20040;-91
2022/09/25 02:16:42;;;;;;;1.70;0.35;;;26.20;81.60;;;;;;5063049;28;20021;-85
2022/09/25 02:22:22;;;;;;;0.90;0.52;;;26.10;78.40;;;;;;5066050;28;20078;-85
2022/09/25 02:25:12;;;;;;;0.57;0.38;;;26.40;81.80;;;;;;5056383;28;20040;-84
2022/09/25 02:27:39;;;;;;;0.40;0.30;;;26.50;82.20;;;;;;5059856;28;20557;-86
2022/09/25 02:30:07;;;;;;;0.65;0.40;;;26.70;78.30;;;;;;5062132;28;20024;-83
2022/09/25 02:32:34;;;;;;;1.05;0.50;;;26.60;76.90;;;;;;5068666;28;20040;-88
2022/09/25 02:35:02;;;;;;;0.60;0.40;;;26.60;77.90;;;;;;5070204;28;20126;-87
2022/09/25 02:37:30;;;;;;;0.90;0.38;;;26.30;77.70;;;;;;5062987;28;20027;-89
2022/09/25 02:40:00;;;;;;;0.88;0.43;;;25.90;78.10;;;;;;5072893;28;20029;-83
2022/09/25 02:42:43;;;;;;;0.88;0.45;;;26.00;79.50;;;;;;5067701;28;20029;-85
2022/09/25 02:45:16;;;;;;;1.23;0.38;;;26.20;76.30;;;;;;5079551;28;20041;-86
2022/09/25 02:48:06;;;;;;;0.50;0.30;;;26.20;78.60;;;;;;5061638;28;20028;-87
2022/09/25 02:50:51;;;;;;;0.82;0.50;;;26.30;82.10;;;;;;5071409;28;20166;-87
2022/09/25 02:53:34;;;;;;;0.55;0.40;;;26.90;80.50;;;;;;5060853;28;20035;-86
2022/09/25 02:56:20;;;;;;;0.57;0.30;;;27.30;79.30;;;;;;5061340;28;20495;-85
2022/09/25 02:59:08;;;;;;;0.43;0.22;;;27.50;77.30;;;;;;5072356;28;20088;-85
2022/09/25 03:01:40;;;;;;;1.52;0.40;;;27.30;77.30;;;;;;5064538;28;20021;-82
2022/09/25 03:04:09;;;;;;;1.05;0.30;;;27.10;75.50;;;;;;5067521;28;20375;-87
2022/09/25 03:06:38;;;;;;;1.58;0.40;;;27.10;77.80;;;;;;5069600;28;20029;-87
2022/09/25 03:09:08;;;;;;;1.15;0.50;;;27.30;76.90;;;;;;5068055;28;20416;-88
2022/09/25 03:11:42;;;;;;;0.60;0.40;;;27.30;79.60;;;;;;5057617;28;20104;-86
2022/09/25 03:14:10;;;;;;;0.77;0.30;;;27.20;75.40;;;;;;5070900;28;20044;-81
2022/09/25 03:16:55;;;;;;;0.63;0.38;;;27.10;75.90;;;;;;5063608;28;20021;-84
2022/09/25 03:19:24;;;;;;;;;;;27.20;77.60;;;;;;5058663;28;20086;-83
2022/09/25 03:21:53;;;;;;;0.45;0.20;;;27.20;78.00;;;;;;5064662;28;19912;-82
2022/09/25 03:24:20;;;;;;;1.02;0.30;;;27.30;75.90;;;;;;5064820;28;20116;-88
2022/09/25 03:26:48;;;;;;;0.75;0.30;;;27.30;79.40;;;;;;5053198;28;20388;-87
2022/09/25 03:29:16;;;;;;;0.80;0.40;;;27.50;78.00;;;;;;5069787;28;20032;-79
2022/09/25 03:31:44;;;;;;;0.40;0.30;;;27.50;75.70;;;;;;5060052;28;20063;-83
2022/09/25 03:34:13;;;;;;;0.70;0.50;;;27.50;75.20;;;;;;5075203;28;20032;-84
2022/09/25 03:36:41;;;;;;;0.80;0.55;;;27.30;78.60;;;;;;5069266;28;20047;-83
2022/09/25 03:39:13;;;;;;;0.60;0.40;;;27.50;77.70;;;;;;5067552;28;20024;-82
2022/09/25 03:41:42;;;;;;;0.50;0.32;;;27.50;77.20;;;;;;5062687;28;20156;-85
2022/09/25 03:44:10;;;;;;;0.60;0.40;;;27.40;76.00;;;;;;5069422;28;20081;-85
2022/09/25 03:46:38;;;;;;;0.30;0.30;;;27.20;73.80;;;;;;5069912;28;20498;-83
2022/09/25 03:49:05;;;;;;;1.17;0.35;;;27.00;73.80;;;;;;5070112;28;20028;-84
2022/09/25 03:51:34;;;;;;;0.30;0.25;;;26.60;72.90;;;;;;5061941;28;20059;-83
2022/09/25 03:54:02;;;;;;;0.40;0.30;;;26.40;73.30;;;;;;5061169;28;20052;-84
2022/09/25 03:56:31;;;;;;;0.95;0.30;;;26.20;76.10;;;;;;5060004;28;20158;-82
2022/09/25 03:58:59;;;;;;;1.85;0.30;;;26.60;74.80;;;;;;5061816;28;20062;-85
2022/09/25 04:01:27;;;;;;;1.80;0.63;;;26.60;73.10;;;;;;5053819;28;20025;-86
2022/09/25 04:03:55;;;;;;;1.50;0.75;;;26.90;77.10;;;;;;5052470;28;20151;-84
2022/09/25 04:06:35;;;;;;;1.85;0.40;;;27.00;75.20;;;;;;5064378;28;20037;-82
2022/09/25 04:09:02;;;;;;;0.70;0.52;;;26.90;73.60;;;;;;5046452;28;20043;-82
2022/09/25 04:11:30;;;;;;;2.10;0.40;;;26.80;74.00;;;;;;5061358;28;20040;-84
2022/09/25 04:13:58;;;;;;;0.70;0.40;;;26.60;73.60;;;;;;5056370;28;20079;-83
2022/09/25 04:16:26;;;;;;;0.65;0.30;;;26.30;72.90;;;;;;5073513;28;20029;-82
2022/09/25 04:18:54;;;;;;;0.88;0.43;;;26.30;72.50;;;;;;5069849;28;20046;-85
2022/09/25 04:21:21;;;;;;;0.50;0.30;;;26.40;73.40;;;;;;5068547;28;20036;-84
2022/09/25 04:26:35;;;;;;;0.90;0.40;;;27.10;74.90;;;;;;5063372;28;20051;-83
2022/09/25 04:29:02;;;;;;;2.05;0.40;;;26.90;72.70;;;;;;5064192;28;20021;-87
2022/09/25 04:31:31;;;;;;;0.50;0.40;;;27.00;72.00;;;;;;5068400;28;20039;-83
2022/09/25 04:33:59;;;;;;;1.25;0.70;;;26.90;72.10;;;;;;5062808;28;20136;-82
2022/09/25 04:36:26;;;;;;;0.75;0.45;;;26.80;72.90;;;;;;5059694;28;20052;-85
2022/09/25 04:38:53;;;;;;;0.68;0.30;;;26.90;74.00;;;;;;5077435;28;20036;-81
2022/09/25 04:41:21;;;;;;;1.13;0.70;;;26.70;70.10;;;;;;5073181;28;20716;-84
2022/09/25 04:43:48;;;;;;;0.68;0.43;;;26.60;73.30;;;;;;5069364;28;20385;-83
2022/09/25 04:46:16;;;;;;;0.38;0.30;;;26.80;72.30;;;;;;5064462;28;20108;-83
2022/09/25 04:48:45;;;;;;;0.88;0.40;;;26.90;73.40;;;;;;5059822;28;20036;-83
2022/09/25 04:51:12;;;;;;;0.93;0.30;;;27.00;72.10;;;;;;5061215;28;20669;-83
2022/09/25 04:53:40;;;;;;;0.70;0.47;;;27.00;71.80;;;;;;5060723;28;20059;-84
2022/09/25 04:56:09;;;;;;;1.80;0.43;;;27.00;72.00;;;;;;5065719;28;20036;-85
2022/09/25 04:58:36;;;;;;;0.65;0.55;;;27.00;73.30;;;;;;5067082;28;20036;-84
2022/09/25 05:01:08;;;;;;;0.75;0.30;;;26.90;70.20;;;;;;5082076;28;20414;-83
2022/09/25 05:03:36;;;;;;;0.25;0.20;;;26.60;71.50;;;;;;5068608;28;20039;-83
2022/09/25 05:06:03;;;;;;;1.10;0.30;;;26.50;72.00;;;;;;5057316;28;20603;-84
2022/09/25 05:08:30;;;;;;;0.40;0.30;;;26.50;73.00;;;;;;5065519;28;20395;-87
2022/09/25 05:10:58;;;;;;;0.43;0.30;;;26.50;74.00;;;;;;5066819;28;20035;-95
2022/09/25 05:13:26;;;;;;;0.60;0.30;;;26.70;73.80;;;;;;5057159;28;20036;-88
2022/09/25 05:15:55;;;;;;;0.98;0.30;;;26.50;69.70;;;;;;5051424;28;20048;-87
2022/09/25 05:18:23;;;;;;;0.60;0.38;;;26.20;71.30;;;;;;5052555;28;20025;-86
2022/09/25 05:20:53;;;;;;;0.38;0.20;;;26.30;72.20;;;;;;5059895;28;20103;-87
2022/09/25 05:23:22;;;;;;;0.57;0.20;;;26.20;70.60;;;;;;5074470;28;20494;-86
2022/09/25 05:26:01;;;;;;;0.57;0.45;;;26.10;70.60;;;;;;5058992;28;20027;-86
2022/09/25 05:28:29;;;;;;;0.45;0.30;;;26.00;72.70;;;;;;5064352;28;20029;-89
2022/09/25 05:31:02;;;;;;;0.30;0.20;;;26.00;73.60;;;;;;5063484;28;20027;-87
2022/09/25 05:33:31;;;;;;;2.25;0.40;;;26.10;75.10;;;;;;5068680;28;20545;-85
2022/09/25 05:36:06;;;;;;;1.95;0.20;;;26.20;75.10;;;;;;5065671;28;20047;-85
2022/09/25 05:38:35;;;;;;;1.02;0.30;;;26.20;72.50;;;;;;5065824;28;20020;-86
2022/09/25 05:41:04;;;;;;;0.90;0.30;;;26.10;74.00;;;;;;5060355;28;20119;-85
2022/09/25 05:43:33;;;;;;;0.95;0.30;;;26.00;72.90;;;;;;5061073;28;20032;-86
2022/09/25 05:46:02;;;;;;;0.52;0.30;;;25.80;73.00;;;;;;5055338;28;20033;-81
2022/09/25 05:48:29;;;;;;;0.38;0.20;;;25.70;74.10;;;;;;5052965;28;20083;-86
2022/09/25 05:50:57;;;;;;;0.73;0.47;;;25.70;74.60;;;;;;5064223;28;20498;-82
2022/09/25 05:53:26;;;;;;;1.10;0.20;;;25.70;72.60;;;;;;5067364;28;20384;-83
2022/09/25 05:55:56;;;;;;;0.40;0.30;;;25.70;72.00;;;;;;5063862;28;20040;-82
2022/09/25 05:58:25;;;;;;;0.60;0.28;;;25.70;73.40;;;;;;5057942;28;20052;-82
2022/09/25 06:00:53;;;;;;;0.50;0.30;;;25.60;73.70;;;;;;5060370;28;20035;-82
2022/09/25 06:03:21;;;;;;;0.38;0.20;;;25.50;72.40;;;;;;5073698;28;20028;-82
2022/09/25 06:05:49;;;;;;;0.43;0.30;;;25.50;72.50;;;;;;5060772;28;20055;-81
2022/09/25 06:08:16;;;;;;;0.77;0.40;;;25.40;72.90;;;;;;5064855;28;20434;-81
2022/09/25 06:10:43;;;;;;;0.68;0.30;;;25.40;73.60;;;;;;5064674;28;20025;-82
2022/09/25 06:13:11;;;;;;;0.55;0.30;;;25.20;75.10;;;;;;5069332;28;20035;-81
2022/09/25 06:15:40;;;;;;;1.60;0.50;;;25.20;73.50;;;;;;5080022;28;20032;-80
2022/09/25 06:18:08;;;;;;;1.92;0.60;;;25.00;73.10;;;;;;5068826;28;20020;-82
2022/09/25 06:20:36;;;;;;;0.43;0.28;;;25.00;73.80;;;;;;5059483;28;20020;-83
2022/09/25 06:23:04;;;;;;;1.92;0.30;;;24.90;74.00;;;;;;5087431;28;20482;-84
2022/09/25 06:25:32;;;;;;;1.00;0.60;;;24.80;74.50;;;;;;5069033;28;20035;-84
2022/09/25 06:28:03;;;;;;;0.40;0.40;;;24.80;73.60;;;;;;5041146;28;20040;-88
2022/09/25 06:30:33;;;;;;;1.20;0.45;;;24.90;74.70;;;;;;5083240;28;20355;-89
2022/09/25 06:33:03;;;;;;;0.57;0.35;;;25.00;74.30;;;;;;5067656;28;20489;-87
2022/09/25 06:35:30;;;;;;;0.30;0.20;;;24.90;74.30;;;;;;5060040;28;20047;-92
2022/09/25 06:37:59;;;;;;;2.42;0.50;;;24.80;74.60;;;;;;5069252;28;20020;-83
2022/09/25 06:40:28;;;;;;;1.67;0.30;;;24.60;74.70;;;;;;5064552;28;20027;-91
2022/09/25 06:43:03;;;;;;;0.65;0.20;;;24.50;75.10;;;;;;5081516;28;20035;-89
2022/09/25 06:45:33;;;;;;;0.57;0.38;;;24.40;75.10;;;;;;5058372;28;20036;-88
2022/09/25 06:48:04;;;;;;;0.57;0.40;;;24.30;75.40;;;;;;5076319;28;20040;-88
2022/09/25 06:50:56;;;;;;;1.27;0.30;;;24.10;75.00;;;;;;5080606;28;20024;-89
2022/09/25 06:53:25;;;;;;;0.57;0.38;;;24.00;75.40;;;;;;5055789;28;20040;-87
2022/09/25 06:55:55;;;;;;;1.35;0.30;;;23.90;74.90;;;;;;5071675;28;20033;-87
2022/09/25 06:58:25;;;;;;;2.25;0.45;;;23.80;75.70;;;;;;5058687;28;20056;-84
2022/09/25 07:00:55;;;;;;;0.70;0.43;;;23.60;78.50;;;;;;5070494;28;20044;-85
2022/09/25 07:06:10;;;;;;;1.48;0.85;;;23.10;82.90;;;;;;5069994;28;20110;-89
2022/09/25 07:08:37;;;;;;;3.03;0.90;;;22.80;84.10;;;;;;5054678;28;20028;-87
2022/09/25 07:11:05;;;;;;;1.48;0.47;;;22.60;85.20;;;;;;5061071;28;20118;-87
2022/09/25 07:13:35;;;;;;;1.38;0.50;;;22.40;86.40;;;;;;5052837;28;20036;-84
2022/09/25 07:16:05;;;;;;;1.15;0.60;;;22.20;87.00;;;;;;5054926;28;20037;-87
2022/09/25 07:18:33;;;;;;;0.80;0.73;;;22.00;87.70;;;;;;5069686;28;20110;-84
2022/09/25 07:21:08;;;;;;;2.38;0.88;;;21.80;88.60;;;;;;5058689;28;20036;-83
2022/09/25 07:23:37;;;;;;;2.35;0.60;;;21.60;89.20;;;;;;5058351;28;20489;-86
2022/09/25 07:26:22;;;;;;;1.75;0.55;;;21.40;89.60;;;;;;5070306;28;20045;-87
2022/09/25 07:29:01;;;;;;;3.13;0.80;;;21.20;90.10;;;;;;5053222;28;20021;-85
2022/09/25 07:31:31;;;;;;;1.33;1.13;;;21.00;90.50;;;;;;5064648;28;20097;-84
2022/09/25 07:34:01;;;;;;;1.35;0.50;;;20.90;90.70;;;;;;5052273;28;20414;-87
2022/09/25 07:36:29;;;;;;;2.00;0.50;;;20.80;90.90;;;;;;5069042;28;20032;-83
2022/09/25 07:38:56;;;;;;;2.95;0.98;;;20.60;91.50;;;;;;5065694;28;20032;-88
2022/09/25 07:41:24;;;;;;;1.27;0.80;;;20.50;91.40;;;;;;5057448;28;20387;-90
2022/09/25 07:43:58;;;;;;;2.17;0.77;;;20.40;91.70;;;;;;5052119;28;20036;-86
2022/09/25 07:46:30;;;;;;;1.58;1.02;;;20.30;92.00;;;;;;5063631;28;20027;-87
2022/09/25 07:48:57;;;;;;;2.92;0.70;;;20.20;92.30;;;;;;5071720;28;20602;-90
2022/09/25 07:51:25;;;;;;;1.85;0.95;;;20.00;92.40;;;;;;5067130;28;20025;-88
2022/09/25 07:53:52;;;;;;;4.25;1.10;;;19.90;92.80;;;;;;5060452;28;20108;-90
2022/09/25 07:56:19;;;;;;;1.00;0.70;;;19.80;92.80;;;;;;5065787;28;20158;-88
2022/09/25 07:58:47;;;;;;;1.63;0.85;;;19.80;93.00;;;;;;5060117;28;20028;-87
2022/09/25 08:01:14;;;;;;;2.05;0.70;;;19.70;93.10;;;;;;5064852;28;20027;-90
2022/09/25 08:03:41;;;;;;;1.40;0.73;;;19.60;93.30;;;;;;5071882;28;20036;-87
2022/09/25 08:06:12;;;;;;;1.48;0.68;;;19.60;93.40;;;;;;5054198;28;20020;-89
2022/09/25 08:08:43;;;;;;;4.28;0.93;;;19.50;93.60;;;;;;5057526;28;20043;-85
2022/09/25 08:11:15;;;;;;;1.70;1.17;;;19.30;93.80;;;;;;5069542;28;20017;-87
2022/09/25 08:13:44;;;;;;;1.20;0.60;;;19.20;94.40;;;;;;5071917;28;20041;-88
2022/09/25 08:16:14;;;;;;;1.30;0.80;;;19.00;94.10;;;;;;5066278;28;20028;-92
2022/09/25 08:18:44;;;;;;;2.45;0.80;;;18.90;94.40;;;;;;5073516;28;20046;-87
2022/09/25 08:21:13;;;;;;;0.98;0.60;;;18.80;94.40;;;;;;5079779;28;20024;-80
2022/09/25 08:23:42;;;;;;;2.90;0.90;;;18.70;94.70;;;;;;5065144;28;20020;-87
2022/09/25 08:26:09;;;;;;;2.53;0.90;;;18.60;94.70;;;;;;5064487;28;20025;-88
2022/09/25 08:28:37;;;;;;;2.40;1.58;;;18.60;94.90;;;;;;5061554;28;20080;-91
2022/09/25 08:31:04;;;;;;;1.48;0.98;;;18.50;95.20;;;;;;5079986;28;20047;-94
2022/09/25 08:33:33;;;;;;;3.50;1.17;;;18.40;95.30;;;;;;5077937;28;20024;-83
2022/09/25 08:36:03;;;;;;;0.88;0.70;;;18.40;95.30;;;;;;5075615;28;20547;-85
2022/09/25 08:38:33;;;;;;;1.02;0.82;;;18.30;95.60;;;;;;5071724;28;20085;-85
2022/09/25 08:41:03;;;;;;;1.90;1.20;;;18.20;95.70;;;;;;5069391;28;20033;-87
2022/09/25 08:43:32;;;;;;;3.67;1.17;;;18.20;95.90;;;;;;5066815;28;20021;-85
2022/09/25 08:49:01;;;;;;;2.97;1.60;;;18.20;96.30;;;;;;5072977;28;20122;-86
2022/09/25 08:51:43;;;;;;;3.63;1.90;;;18.10;96.50;;;;;;5060278;28;20091;-81
2022/09/25 08:54:21;;;;;;;2.33;1.33;;;18.10;96.80;;;;;;5060737;28;20033;-83
2022/09/25 08:57:03;;;;;;;5.35;2.00;;;18.00;97.20;;;;;;5061537;28;20032;-82
2022/09/25 08:59:45;;;;;;;2.22;1.60;;;18.00;96.80;;;;;;5050325;28;20409;-82
2022/09/25 09:02:25;;;;;;;4.22;1.55;;;17.90;97.00;;;;;;5067583;28;20032;-83
2022/09/25 09:05:00;;;;;;;4.05;1.67;;;17.90;97.20;;;;;;5066799;28;20048;-93
2022/09/25 09:07:36;;;;;;;3.10;2.17;;;17.90;97.40;;;;;;5059476;28;20505;-87
2022/09/25 09:10:30;;;;;;;3.58;2.03;;;17.80;97.80;;;;;;5070179;28;20241;-89
2022/09/25 09:13:24;;;;;;;3.17;1.27;;;17.80;97.80;;;;;;5069160;28;20016;-87
2022/09/25 09:16:23;;;;;;;1.58;0.50;;;17.70;97.80;;;;;;5056542;28;20120;-87
2022/09/25 09:18:50;;;;;;;1.15;0.52;;;17.70;97.90;;;;;;5069477;28;20036;-88
2022/09/25 09:21:35;;;;;;;1.80;1.15;;;17.70;98.10;;;;;;5070443;28;20052;-88
2022/09/25 09:24:05;;;;;;;1.80;0.60;;;17.60;98.10;;;;;;5066197;28;20426;-89
2022/09/25 09:26:32;;;;;;;2.72;0.90;;;17.60;98.30;;;;;;5074838;28;20027;-91
2022/09/25 09:29:32;;;;;;;2.28;1.17;;;17.60;98.40;;;;;;5078438;28;20021;-91
2022/09/25 09:32:10;;;;;;;1.77;1.00;;;17.50;98.60;;;;;;5078631;28;20077;-88
2022/09/25 09:34:53;;;;;;;2.45;0.80;;;17.50;98.90;;;;;;5074656;28;20081;-88
2022/09/25 09:37:30;;;;;;;1.80;0.90;;;17.40;99.20;;;;;;5064148;28;20120;-88
2022/09/25 09:40:03;;;;;;;1.95;1.23;;;17.40;99.60;;;;;;5086389;28;20056;-89
2022/09/25 09:42:50;;;;;;;2.42;1.17;;;17.40;99.90;;;;;;5064957;28;20052;-88
2022/09/25 09:45:59;;;;;;;3.65;1.80;;;17.30;99.90;;;;;;5061166;28;20017;-87
2022/09/25 09:48:35;;;;;;;11.05;5.22;;;17.20;99.90;;;;;;5058913;28;20055;-89
2022/09/25 09:51:20;;;;;;;4.70;2.97;;;17.20;99.90;;;;;;5078409;28;20025;-86
2022/09/25 09:53:50;;;;;;;4.70;1.77;;;17.20;99.90;;;;;;5059190;28;20037;-88
2022/09/25 09:56:21;;;;;;;3.22;1.70;;;17.10;99.90;;;;;;5071909;28;20414;-80
2022/09/25 09:58:59;;;;;;;2.30;1.02;;;17.10;99.90;;;;;;5075871;28;20020;-87
2022/09/25 10:01:37;;;;;;;4.80;1.42;;;17.10;99.90;;;;;;5069166;28;20036;-87
2022/09/25 10:04:12;;;;;;;3.22;1.33;;;17.00;99.90;;;;;;5057844;28;20501;-82
2022/09/25 10:06:48;;;;;;;3.08;1.30;;;17.00;99.90;;;;;;5071876;28;20436;-86
2022/09/25 10:09:17;;;;;;;5.63;1.45;;;16.90;99.90;;;;;;5072862;28;20028;-82
2022/09/25 10:11:46;;;;;;;4.15;1.55;;;16.80;99.90;;;;;;5057096;28;20024;-82
2022/09/25 10:14:21;;;;;;;3.13;1.70;;;16.70;99.90;;;;;;5066100;28;20041;-88
2022/09/25 10:16:53;;;;;;;2.97;1.70;;;16.60;99.90;;;;;;5067266;28;20032;-82
2022/09/25 10:19:24;;;;;;;6.15;1.70;;;16.50;99.90;;;;;;5071527;28;20016;-85
2022/09/25 10:22:29;;;;;;;2.65;1.27;;;16.40;99.90;;;;;;5055098;28;20070;-83
2022/09/25 10:25:04;;;;;;;1.52;0.98;;;16.30;99.90;;;;;;5053203;28;20032;-83
2022/09/25 10:27:40;;;;;;;3.15;1.17;;;16.20;99.90;;;;;;5057125;28;20032;-86
2022/09/25 10:30:09;;;;;;;;;;;16.10;99.90;;;;;;5062578;28;20044;-84
2022/09/25 10:32:48;;;;;;;2.72;1.42;;;16.00;99.90;;;;;;5054616;28;19931;-84
2022/09/25 10:35:26;;;;;;;4.25;1.90;;;16.00;99.90;;;;;;5060603;28;20047;-84
2022/09/25 10:38:00;;;;;;;3.33;1.50;;;15.90;99.90;;;;;;5056393;28;20025;-81
2022/09/25 10:40:38;;;;;;;4.82;2.25;;;15.80;99.90;;;;;;5060507;28;20021;-87
2022/09/25 10:43:25;;;;;;;2.90;1.27;;;15.70;99.90;;;;;;5056805;28;20112;-82
2022/09/25 10:50:09;;;;;;;4.10;1.40;;;15.70;99.90;;;;;;5089273;28;20019;-85
2022/09/25 10:52:10;;;;;;;2.47;1.02;;;15.50;99.90;;;;;;5063101;28;20082;-85
2022/09/25 10:54:38;;;;;;;2.65;1.20;;;15.50;99.90;;;;;;5064926;28;20041;-90
2022/09/25 10:57:33;;;;;;;1.13;0.80;;;15.40;99.90;;;;;;5056027;28;20032;-90
2022/09/25 11:00:06;;;;;;;3.95;1.20;;;15.40;99.90;;;;;;5057505;28;20368;-85
2022/09/25 11:02:40;;;;;;;2.50;1.17;;;15.40;99.90;;;;;;5058221;28;20028;-85
2022/09/25 11:05:19;;;;;;;2.15;1.08;;;15.30;99.90;;;;;;5069929;28;20077;-85
2022/09/25 11:07:56;;;;;;;3.13;1.15;;;15.30;99.90;;;;;;5072064;28;20028;-83
2022/09/25 11:10:29;;;;;;;2.63;1.60;;;15.20;99.90;;;;;;5065707;28;20487;-87
2022/09/25 11:12:57;;;;;;;1.83;1.15;;;15.20;99.90;;;;;;5060451;28;20060;-90
2022/09/25 11:15:26;;;;;;;3.95;1.05;;;15.20;99.90;;;;;;5077204;28;20132;-86
2022/09/25 11:17:58;;;;;;;4.15;1.20;;;15.10;99.90;;;;;;5064705;28;20441;-89
2022/09/25 11:20:30;;;;;;;2.22;1.20;;;15.10;99.90;;;;;;5072072;28;20102;-87
2022/09/25 11:23:21;;;;;;;2.95;1.40;;;15.10;99.90;;;;;;5056909;28;20486;-88
2022/09/25 11:26:04;;;;;;;2.47;1.35;;;15.00;99.90;;;;;;5070187;28;20036;-87
2022/09/25 11:28:51;;;;;;;2.55;1.17;;;14.90;99.90;;;;;;5074656;28;20036;-89
2022/09/25 11:31:34;;;;;;;3.33;1.33;;;14.90;99.90;;;;;;5066853;28;20049;-92
2022/09/25 11:34:39;;;;;;;5.78;3.17;;;14.80;99.90;;;;;;5068842;28;20046;-89
2022/09/25 11:37:30;;;;;;;5.85;3.15;;;14.80;99.90;;;;;;5000190;28;20049;-86
2022/09/25 11:43:06;;;;;;;7.72;2.10;;;14.70;99.90;;;;;;5075139;28;20047;-88
2022/09/25 11:45:46;;;;;;;4.47;2.03;;;14.70;99.90;;;;;;5086698;28;20024;-88
2022/09/25 11:48:25;;;;;;;4.07;2.13;;;14.70;99.90;;;;;;5061113;28;20021;-88
2022/09/25 11:51:14;;;;;;;3.58;1.85;;;14.70;99.90;;;;;;5069863;28;20656;-83
2022/09/25 11:54:00;;;;;;;3.90;1.92;;;14.60;99.90;;;;;;5075092;28;20031;-81
2022/09/25 11:56:56;;;;;;;5.78;2.00;;;14.60;99.90;;;;;;5069813;28;20395;-84
2022/09/25 11:59:37;;;;;;;4.20;2.30;;;14.50;99.90;;;;;;5055979;28;20071;-86
2022/09/25 12:02:24;;;;;;;3.08;2.17;;;14.50;99.90;;;;;;5063579;28;20033;-83
2022/09/25 12:05:13;;;;;;;7.45;4.03;;;14.40;99.90;;;;;;5083224;28;20024;-86
2022/09/25 12:08:05;;;;;;;6.25;5.20;;;14.40;99.90;;;;;;5059157;28;20067;-88
2022/09/25 12:10:38;;;;;;;8.50;5.80;;;14.40;99.90;;;;;;5053757;28;20020;-83
2022/09/25 12:13:30;;;;;;;7.25;5.68;;;14.40;99.90;;;;;;5063805;28;20032;-84
2022/09/25 12:16:46;;;;;;;8.88;5.47;;;14.30;99.90;;;;;;5077023;28;20032;-83
2022/09/25 12:19:17;;;;;;;9.50;8.30;;;14.30;99.90;;;;;;5004034;28;20919;-82
2022/09/25 12:22:00;;;;;;;8.35;6.45;;;14.20;99.90;;;;;;5065598;28;20081;-84
2022/09/25 12:24:45;;;;;;;7.88;6.38;;;14.20;99.90;;;;;;5058159;28;20112;-87
2022/09/25 12:27:40;;;;;;;9.40;6.72;;;14.10;99.90;;;;;;5071730;28;20472;-81
2022/09/25 12:30:15;;;;;;;9.27;5.78;;;14.10;99.90;;;;;;5043565;28;20047;-84
2022/09/25 12:32:45;;;;;;;6.88;5.18;;;14.10;99.90;;;;;;5071035;28;20057;-83
2022/09/25 12:35:37;;;;;;;6.32;4.63;;;14.00;99.90;;;;;;5055727;28;20029;-85
2022/09/25 12:38:13;;;;;;;7.30;3.92;;;14.00;99.90;;;;;;5065764;28;20067;-81
2022/09/25 12:41:03;;;;;;;5.63;3.20;;;13.80;99.90;;;;;;5067557;28;20098;-83
2022/09/25 12:43:35;;;;;;;5.55;2.55;;;13.80;99.90;;;;;;5068953;28;20113;-80
2022/09/25 12:46:24;;;;;;;3.70;1.88;;;13.80;99.90;;;;;;5054623;28;20036;-81
2022/09/25 12:49:04;;;;;;;5.50;2.35;;;13.80;99.90;;;;;;5082829;28;20024;-84
2022/09/25 12:51:42;;;;;;;3.72;2.25;;;13.80;99.90;;;;;;5080801;28;20028;-82
2022/09/25 12:54:15;;;;;;;3.53;2.25;;;13.80;99.90;;;;;;5073279;28;20028;-81
2022/09/25 12:57:01;;;;;;;3.20;2.08;;;13.70;99.90;;;;;;5081327;28;20410;-82
2022/09/25 12:59:41;;;;;;;5.13;2.17;;;13.70;99.90;;;;;;5051234;28;20432;-83
2022/09/25 13:02:17;;;;;;;5.28;2.42;;;13.70;99.90;;;;;;5048360;28;20030;-85
2022/09/25 13:05:18;;;;;;;4.18;2.35;;;13.70;99.90;;;;;;5050979;28;20448;-85
2022/09/25 13:07:51;;;;;;;3.70;1.92;;;13.60;99.90;;;;;;5078923;28;20028;-84
2022/09/25 13:10:59;;;;;;;6.43;2.50;;;13.60;99.90;;;;;;5078828;28;20111;-82
2022/09/25 13:13:30;;;;;;;3.17;1.85;;;13.60;99.90;;;;;;5036342;28;20047;-82
2022/09/25 13:16:02;;;;;;;4.28;2.63;;;13.60;99.90;;;;;;5070168;28;20035;-82
2022/09/25 13:18:34;;;;;;;4.90;1.75;;;13.50;99.90;;;;;;5083806;28;20033;-81
2022/09/25 13:21:28;;;;;;;3.50;1.50;;;13.60;99.90;;;;;;5070571;28;20035;-84
2022/09/25 13:23:58;;;;;;;3.20;1.77;;;13.50;99.90;;;;;;5079107;28;20495;-83
2022/09/25 13:26:26;;;;;;;3.28;1.60;;;13.40;99.90;;;;;;5075159;28;20063;-82
2022/09/25 13:29:24;;;;;;;2.95;1.20;;;13.40;99.90;;;;;;5071034;28;20033;-83
2022/09/25 13:32:04;;;;;;;3.95;2.25;;;13.40;99.90;;;;;;5050946;28;20071;-81
2022/09/25 13:34:37;;;;;;;2.92;1.70;;;13.30;99.90;;;;;;5071624;28;20035;-83
2022/09/25 13:37:07;;;;;;;2.75;1.55;;;13.30;99.90;;;;;;5082415;28;20106;-82
2022/09/25 13:42:39;;;;;;;3.42;1.50;;;13.30;99.90;;;;;;5066279;28;20079;-80
2022/09/25 13:45:26;;;;;;;3.00;1.73;;;13.20;99.90;;;;;;5072028;28;20028;-81
2022/09/25 13:48:01;;;;;;;3.20;1.52;;;13.10;99.90;;;;;;5077588;28;20098;-81
2022/09/25 13:50:37;;;;;;;2.50;1.48;;;13.10;99.90;;;;;;5073466;28;20025;-81